sensor_id;sensor_type;location;lat;lon;timestamp;pressure;altitude;pressure_sealevel;temperature
70435;BMP280;57876;47.792;12.960;2022-08-21T00:00:34;96888.38;;;20.68
70435;BMP280;57876;47.792;12.960;2022-08-21T00:03:05;96900.09;;;20.68
70435;BMP280;57876;47.792;12.960;2022-08-21T00:05:31;96904.16;;;20.67
70435;BMP280;57876;47.792;12.960;2022-08-21T00:07:56;96896.63;;;20.68
70435;BMP280;57876;47.792;12.960;2022-08-21T00:10:21;96905.59;;;20.68
70435;BMP280;57876;47.792;12.960;2022-08-21T00:12:46;96896.50;;;20.66
70435;BMP280;57876;47.792;12.960;2022-08-21T00:15:13;96892.44;;;20.67
70435;BMP280;57876;47.792;12.960;2022-08-21T00:17:38;96897.94;;;20.67
70435;BMP280;57876;47.792;12.960;2022-08-21T00:20:07;96886.25;;;20.66
70435;BMP280;57876;47.792;12.960;2022-08-21T00:22:32;96885.50;;;20.66
70435;BMP280;57876;47.792;12.960;2022-08-21T00:24:57;96889.00;;;20.66
70435;BMP280;57876;47.792;12.960;2022-08-21T00:27:22;96886.25;;;20.66
70435;BMP280;57876;47.792;12.960;2022-08-21T00:29:46;96883.50;;;20.66
70435;BMP280;57876;47.792;12.960;2022-08-21T00:32:10;96869.75;;;20.66
70435;BMP280;57876;47.792;12.960;2022-08-21T00:34:35;96869.00;;;20.66
70435;BMP280;57876;47.792;12.960;2022-08-21T00:36:59;96858.75;;;20.66
70435;BMP280;57876;47.792;12.960;2022-08-21T00:39:24;96858.75;;;20.66
70435;BMP280;57876;47.792;12.960;2022-08-21T00:41:48;96856.00;;;20.66
70435;BMP280;57876;47.792;12.960;2022-08-21T00:44:14;96858.75;;;20.66
70435;BMP280;57876;47.792;12.960;2022-08-21T00:46:40;96852.53;;;20.66
70435;BMP280;57876;47.792;12.960;2022-08-21T00:49:06;96842.94;;;20.67
70435;BMP280;57876;47.792;12.960;2022-08-21T00:51:37;96838.78;;;20.66
70435;BMP280;57876;47.792;12.960;2022-08-21T00:54:02;96850.50;;;20.66
70435;BMP280;57876;47.792;12.960;2022-08-21T00:56:28;96834.00;;;20.66
70435;BMP280;57876;47.792;12.960;2022-08-21T00:58:54;96837.31;;;20.65
70435;BMP280;57876;47.792;12.960;2022-08-21T01:01:19;96825.63;;;20.64
70435;BMP280;57876;47.792;12.960;2022-08-21T01:03:45;96827.06;;;20.65
70435;BMP280;57876;47.792;12.960;2022-08-21T01:06:10;96824.31;;;20.65
70435;BMP280;57876;47.792;12.960;2022-08-21T01:08:35;96819.53;;;20.66
70435;BMP280;57876;47.792;12.960;2022-08-21T01:11:01;96816.06;;;20.65
70435;BMP280;57876;47.792;12.960;2022-08-21T01:13:28;96816.06;;;20.65
70435;BMP280;57876;47.792;12.960;2022-08-21T01:15:56;96816.06;;;20.65
70435;BMP280;57876;47.792;12.960;2022-08-21T01:18:21;96810.56;;;20.65
70435;BMP280;57876;47.792;12.960;2022-08-21T01:23:37;96813.31;;;20.65
70435;BMP280;57876;47.792;12.960;2022-08-21T01:26:02;96820.13;;;20.64
70435;BMP280;57876;47.792;12.960;2022-08-21T01:28:28;96813.31;;;20.65
70435;BMP280;57876;47.792;12.960;2022-08-21T01:30:55;96809.84;;;20.65
70435;BMP280;57876;47.792;12.960;2022-08-21T01:33:21;96815.34;;;20.65
70435;BMP280;57876;47.792;12.960;2022-08-21T01:35:46;96815.34;;;20.65
70435;BMP280;57876;47.792;12.960;2022-08-21T01:38:11;96820.84;;;20.65
70435;BMP280;57876;47.792;12.960;2022-08-21T01:40:36;96814.63;;;20.64
70435;BMP280;57876;47.792;12.960;2022-08-21T01:43:00;96811.88;;;20.64
70435;BMP280;57876;47.792;12.960;2022-08-21T01:45:26;96816.63;;;20.64
70435;BMP280;57876;47.792;12.960;2022-08-21T01:47:50;96821.44;;;20.63
70435;BMP280;57876;47.792;12.960;2022-08-21T01:50:18;96816.06;;;20.65
70435;BMP280;57876;47.792;12.960;2022-08-21T01:52:43;96811.13;;;20.64
70435;BMP280;57876;47.792;12.960;2022-08-21T01:55:08;96816.78;;;20.66
70435;BMP280;57876;47.792;12.960;2022-08-21T01:57:33;96817.38;;;20.64
70435;BMP280;57876;47.792;12.960;2022-08-21T01:59:58;96816.06;;;20.65
70435;BMP280;57876;47.792;12.960;2022-08-21T02:02:22;96811.88;;;20.64
70435;BMP280;57876;47.792;12.960;2022-08-21T02:04:47;96808.38;;;20.64
70435;BMP280;57876;47.792;12.960;2022-08-21T02:07:11;96823.59;;;20.65
70435;BMP280;57876;47.792;12.960;2022-08-21T02:09:36;96819.38;;;20.64
70435;BMP280;57876;47.792;12.960;2022-08-21T02:12:00;96822.13;;;20.64
70435;BMP280;57876;47.792;12.960;2022-08-21T02:14:25;96814.63;;;20.64
70435;BMP280;57876;47.792;12.960;2022-08-21T02:16:49;96805.63;;;20.64
70435;BMP280;57876;47.792;12.960;2022-08-21T02:19:15;96809.84;;;20.65
70435;BMP280;57876;47.792;12.960;2022-08-21T02:21:40;96813.19;;;20.63
70435;BMP280;57876;47.792;12.960;2022-08-21T02:24:05;96822.13;;;20.64
70435;BMP280;57876;47.792;12.960;2022-08-21T02:26:29;96826.91;;;20.63
70435;BMP280;57876;47.792;12.960;2022-08-21T02:28:54;96820.13;;;20.64
70435;BMP280;57876;47.792;12.960;2022-08-21T02:31:19;96822.88;;;20.64
70435;BMP280;57876;47.792;12.960;2022-08-21T02:33:43;96819.38;;;20.64
70435;BMP280;57876;47.792;12.960;2022-08-21T02:36:10;96822.13;;;20.64
70435;BMP280;57876;47.792;12.960;2022-08-21T02:38:35;96820.13;;;20.64
70435;BMP280;57876;47.792;12.960;2022-08-21T02:41:05;96824.88;;;20.64
70435;BMP280;57876;47.792;12.960;2022-08-21T02:43:29;96818.69;;;20.63
70435;BMP280;57876;47.792;12.960;2022-08-21T02:45:55;96818.69;;;20.63
70435;BMP280;57876;47.792;12.960;2022-08-21T02:48:23;96825.63;;;20.64
70435;BMP280;57876;47.792;12.960;2022-08-21T02:50:53;96818.69;;;20.63
70435;BMP280;57876;47.792;12.960;2022-08-21T02:53:18;96822.13;;;20.64
70435;BMP280;57876;47.792;12.960;2022-08-21T02:55:45;96821.44;;;20.63
70435;BMP280;57876;47.792;12.960;2022-08-21T02:58:11;96815.19;;;20.63
70435;BMP280;57876;47.792;12.960;2022-08-21T03:00:37;96822.88;;;20.64
70435;BMP280;57876;47.792;12.960;2022-08-21T03:03:02;96815.94;;;20.63
70435;BMP280;57876;47.792;12.960;2022-08-21T03:05:28;96815.19;;;20.63
70435;BMP280;57876;47.792;12.960;2022-08-21T03:07:55;96806.94;;;20.63
70435;BMP280;57876;47.792;12.960;2022-08-21T03:10:21;96806.94;;;20.63
70435;BMP280;57876;47.792;12.960;2022-08-21T03:12:47;96810.44;;;20.63
70435;BMP280;57876;47.792;12.960;2022-08-21T03:15:13;96811.75;;;20.62
70435;BMP280;57876;47.792;12.960;2022-08-21T03:17:38;96811.13;;;20.64
70435;BMP280;57876;47.792;12.960;2022-08-21T03:20:04;96817.94;;;20.63
70435;BMP280;57876;47.792;12.960;2022-08-21T03:22:29;96837.19;;;20.63
70435;BMP280;57876;47.792;12.960;2022-08-21T03:24:54;96838.63;;;20.64
70435;BMP280;57876;47.792;12.960;2022-08-21T03:27:18;96831.69;;;20.63
70435;BMP280;57876;47.792;12.960;2022-08-21T03:29:43;96825.50;;;20.62
70435;BMP280;57876;47.792;12.960;2022-08-21T03:32:07;96809.69;;;20.63
70435;BMP280;57876;47.792;12.960;2022-08-21T03:34:36;96828.94;;;20.63
70435;BMP280;57876;47.792;12.960;2022-08-21T03:37:01;96829.66;;;20.63
70435;BMP280;57876;47.792;12.960;2022-08-21T03:39:25;96825.50;;;20.62
70435;BMP280;57876;47.792;12.960;2022-08-21T03:41:49;96815.19;;;20.63
70435;BMP280;57876;47.792;12.960;2022-08-21T03:44:14;96828.94;;;20.63
70435;BMP280;57876;47.792;12.960;2022-08-21T03:46:38;96826.19;;;20.63
70435;BMP280;57876;47.792;12.960;2022-08-21T03:49:04;96828.94;;;20.63
70435;BMP280;57876;47.792;12.960;2022-08-21T03:51:28;96822.75;;;20.62
70435;BMP280;57876;47.792;12.960;2022-08-21T03:53:53;96820.69;;;20.63
70435;BMP280;57876;47.792;12.960;2022-08-21T03:56:18;96817.94;;;20.63
70435;BMP280;57876;47.792;12.960;2022-08-21T03:58:43;96820.69;;;20.63
70435;BMP280;57876;47.792;12.960;2022-08-21T04:01:08;96825.50;;;20.62
70435;BMP280;57876;47.792;12.960;2022-08-21T04:03:36;96836.50;;;20.62
70435;BMP280;57876;47.792;12.960;2022-08-21T04:06:00;96847.50;;;20.62
70435;BMP280;57876;47.792;12.960;2022-08-21T04:08:25;96847.50;;;20.62
70435;BMP280;57876;47.792;12.960;2022-08-21T04:10:51;96855.75;;;20.62
70435;BMP280;57876;47.792;12.960;2022-08-21T04:13:16;96852.25;;;20.62
70435;BMP280;57876;47.792;12.960;2022-08-21T04:15:41;96851.56;;;20.61
70435;BMP280;57876;47.792;12.960;2022-08-21T04:18:05;96857.75;;;20.62
70435;BMP280;57876;47.792;12.960;2022-08-21T04:20:30;96859.81;;;20.61
70435;BMP280;57876;47.792;12.960;2022-08-21T04:22:55;96859.81;;;20.61
70435;BMP280;57876;47.792;12.960;2022-08-21T04:25:21;96863.25;;;20.62
70435;BMP280;57876;47.792;12.960;2022-08-21T04:27:46;96871.50;;;20.62
70435;BMP280;57876;47.792;12.960;2022-08-21T04:30:11;96877.56;;;20.60
70435;BMP280;57876;47.792;12.960;2022-08-21T04:32:37;96885.81;;;20.60
70435;BMP280;57876;47.792;12.960;2022-08-21T04:35:04;96888.56;;;20.60
70435;BMP280;57876;47.792;12.960;2022-08-21T04:37:30;96885.81;;;20.60
70435;BMP280;57876;47.792;12.960;2022-08-21T04:39:54;96888.56;;;20.60
70435;BMP280;57876;47.792;12.960;2022-08-21T04:42:21;96887.84;;;20.60
70435;BMP280;57876;47.792;12.960;2022-08-21T04:44:47;96882.34;;;20.60
70435;BMP280;57876;47.792;12.960;2022-08-21T04:47:13;96885.81;;;20.60
70435;BMP280;57876;47.792;12.960;2022-08-21T04:49:37;96893.34;;;20.60
70435;BMP280;57876;47.792;12.960;2022-08-21T04:52:02;96894.06;;;20.60
70435;BMP280;57876;47.792;12.960;2022-08-21T04:54:26;96893.34;;;20.60
70435;BMP280;57876;47.792;12.960;2022-08-21T04:56:55;96894.81;;;20.61
70435;BMP280;57876;47.792;12.960;2022-08-21T04:59:25;96902.31;;;20.60
70435;BMP280;57876;47.792;12.960;2022-08-21T05:01:51;96905.06;;;20.60
70435;BMP280;57876;47.792;12.960;2022-08-21T05:04:23;96901.59;;;20.60
70435;BMP280;57876;47.792;12.960;2022-08-21T05:06:48;96906.38;;;20.59
70435;BMP280;57876;47.792;12.960;2022-08-21T05:09:15;96901.59;;;20.60
70435;BMP280;57876;47.792;12.960;2022-08-21T05:11:40;96920.84;;;20.60
70435;BMP280;57876;47.792;12.960;2022-08-21T05:14:06;96911.84;;;20.59
70435;BMP280;57876;47.792;12.960;2022-08-21T05:16:30;96916.66;;;20.59
70435;BMP280;57876;47.792;12.960;2022-08-21T05:18:54;96914.59;;;20.59
70435;BMP280;57876;47.792;12.960;2022-08-21T05:21:19;96915.34;;;20.60
70435;BMP280;57876;47.792;12.960;2022-08-21T05:23:43;96914.59;;;20.59
70435;BMP280;57876;47.792;12.960;2022-08-21T05:26:08;96912.59;;;20.60
70435;BMP280;57876;47.792;12.960;2022-08-21T05:28:32;96915.34;;;20.60
70435;BMP280;57876;47.792;12.960;2022-08-21T05:30:57;96916.06;;;20.60
70435;BMP280;57876;47.792;12.960;2022-08-21T05:33:21;96913.91;;;20.59
70435;BMP280;57876;47.792;12.960;2022-08-21T05:35:50;96920.09;;;20.59
70435;BMP280;57876;47.792;12.960;2022-08-21T05:38:15;96920.09;;;20.59
70435;BMP280;57876;47.792;12.960;2022-08-21T05:40:40;96919.53;;;20.61
70435;BMP280;57876;47.792;12.960;2022-08-21T05:43:04;96920.09;;;20.59
70435;BMP280;57876;47.792;12.960;2022-08-21T05:45:33;96926.34;;;20.60
70435;BMP280;57876;47.792;12.960;2022-08-21T05:47:57;96925.03;;;20.61
70435;BMP280;57876;47.792;12.960;2022-08-21T05:50:22;96921.56;;;20.60
70435;BMP280;57876;47.792;12.960;2022-08-21T05:52:46;96931.28;;;20.61
70435;BMP280;57876;47.792;12.960;2022-08-21T05:55:11;96928.53;;;20.61
70435;BMP280;57876;47.792;12.960;2022-08-21T05:57:36;96924.31;;;20.60
70435;BMP280;57876;47.792;12.960;2022-08-21T06:00:00;96929.81;;;20.60
70435;BMP280;57876;47.792;12.960;2022-08-21T06:02:24;96927.78;;;20.61
70435;BMP280;57876;47.792;12.960;2022-08-21T06:04:49;96925.03;;;20.61
70435;BMP280;57876;47.792;12.960;2022-08-21T06:07:14;96926.34;;;20.60
70435;BMP280;57876;47.792;12.960;2022-08-21T06:09:39;96920.28;;;20.61
70435;BMP280;57876;47.792;12.960;2022-08-21T06:12:05;96920.84;;;20.60
70435;BMP280;57876;47.792;12.960;2022-08-21T06:14:29;96922.28;;;20.61
70435;BMP280;57876;47.792;12.960;2022-08-21T06:16:54;96930.53;;;20.61
70435;BMP280;57876;47.792;12.960;2022-08-21T06:19:18;96925.03;;;20.61
70435;BMP280;57876;47.792;12.960;2022-08-21T06:21:43;96924.31;;;20.60
70435;BMP280;57876;47.792;12.960;2022-08-21T06:24:07;96913.31;;;20.60
70435;BMP280;57876;47.792;12.960;2022-08-21T06:26:32;96916.78;;;20.61
70435;BMP280;57876;47.792;12.960;2022-08-21T06:28:57;96925.03;;;20.61
70435;BMP280;57876;47.792;12.960;2022-08-21T06:31:24;96923.75;;;20.62
70435;BMP280;57876;47.792;12.960;2022-08-21T06:33:49;96923.75;;;20.62
70435;BMP280;57876;47.792;12.960;2022-08-21T06:36:15;96921.72;;;20.62
70435;BMP280;57876;47.792;12.960;2022-08-21T06:38:39;96914.78;;;20.61
70435;BMP280;57876;47.792;12.960;2022-08-21T06:41:04;96916.91;;;20.63
70435;BMP280;57876;47.792;12.960;2022-08-21T06:43:29;96912.75;;;20.62
70435;BMP280;57876;47.792;12.960;2022-08-21T06:45:53;96918.97;;;20.62
70435;BMP280;57876;47.792;12.960;2022-08-21T06:48:18;96921.72;;;20.62
70435;BMP280;57876;47.792;12.960;2022-08-21T06:50:43;96921.00;;;20.62
70435;BMP280;57876;47.792;12.960;2022-08-21T06:53:10;96918.97;;;20.62
70435;BMP280;57876;47.792;12.960;2022-08-21T06:55:35;96920.41;;;20.63
70435;BMP280;57876;47.792;12.960;2022-08-21T06:58:00;96921.84;;;20.64
70435;BMP280;57876;47.792;12.960;2022-08-21T07:00:25;96915.59;;;20.64
70435;BMP280;57876;47.792;12.960;2022-08-21T07:02:49;96911.56;;;20.65
70435;BMP280;57876;47.792;12.960;2022-08-21T07:05:14;96923.28;;;20.65
70435;BMP280;57876;47.792;12.960;2022-08-21T07:07:38;96915.03;;;20.65
70435;BMP280;57876;47.792;12.960;2022-08-21T07:10:03;96909.53;;;20.65
70435;BMP280;57876;47.792;12.960;2022-08-21T07:12:27;96917.78;;;20.65
70435;BMP280;57876;47.792;12.960;2022-08-21T07:14:52;96913.00;;;20.66
70435;BMP280;57876;47.792;12.960;2022-08-21T07:17:16;96917.16;;;20.67
70435;BMP280;57876;47.792;12.960;2022-08-21T07:19:41;96913.00;;;20.66
70435;BMP280;57876;47.792;12.960;2022-08-21T07:22:05;96908.91;;;20.67
70435;BMP280;57876;47.792;12.960;2022-08-21T07:24:29;96908.91;;;20.67
70435;BMP280;57876;47.792;12.960;2022-08-21T07:26:54;96913.13;;;20.68
70435;BMP280;57876;47.792;12.960;2022-08-21T07:29:18;96907.63;;;20.68
70435;BMP280;57876;47.792;12.960;2022-08-21T07:31:43;96908.91;;;20.67
70435;BMP280;57876;47.792;12.960;2022-08-21T07:34:07;96904.16;;;20.67
70435;BMP280;57876;47.792;12.960;2022-08-21T07:36:32;96897.25;;;20.66
70435;BMP280;57876;47.792;12.960;2022-08-21T07:38:56;96904.88;;;20.68
70435;BMP280;57876;47.792;12.960;2022-08-21T07:41:24;96902.75;;;20.66
70435;BMP280;57876;47.792;12.960;2022-08-21T07:43:49;96906.91;;;20.67
70435;BMP280;57876;47.792;12.960;2022-08-21T07:46:14;96903.44;;;20.67
70435;BMP280;57876;47.792;12.960;2022-08-21T07:48:38;96904.16;;;20.67
70435;BMP280;57876;47.792;12.960;2022-08-21T07:51:06;96902.13;;;20.68
70435;BMP280;57876;47.792;12.960;2022-08-21T07:53:31;96895.91;;;20.67
70435;BMP280;57876;47.792;12.960;2022-08-21T07:55:59;96898.66;;;20.67
70435;BMP280;57876;47.792;12.960;2022-08-21T07:58:23;96893.88;;;20.68
70435;BMP280;57876;47.792;12.960;2022-08-21T08:00:47;96892.44;;;20.67
70435;BMP280;57876;47.792;12.960;2022-08-21T08:03:12;96893.16;;;20.67
70435;BMP280;57876;47.792;12.960;2022-08-21T08:05:36;96888.38;;;20.68
70435;BMP280;57876;47.792;12.960;2022-08-21T08:08:01;96880.88;;;20.68
70435;BMP280;57876;47.792;12.960;2022-08-21T08:10:26;96890.56;;;20.69
70435;BMP280;57876;47.792;12.960;2022-08-21T08:12:51;96883.63;;;20.68
70435;BMP280;57876;47.792;12.960;2022-08-21T08:15:18;96882.31;;;20.69
70435;BMP280;57876;47.792;12.960;2022-08-21T08:17:43;96878.84;;;20.69
70435;BMP280;57876;47.792;12.960;2022-08-21T08:20:09;96884.47;;;20.71
70435;BMP280;57876;47.792;12.960;2022-08-21T08:22:35;96877.56;;;20.70
70435;BMP280;57876;47.792;12.960;2022-08-21T08:25:01;96878.25;;;20.70
70435;BMP280;57876;47.792;12.960;2022-08-21T08:27:25;96882.44;;;20.71
70435;BMP280;57876;47.792;12.960;2022-08-21T08:29:50;96872.16;;;20.72
70435;BMP280;57876;47.792;12.960;2022-08-21T08:32:15;96879.69;;;20.71
70435;BMP280;57876;47.792;12.960;2022-08-21T08:34:40;96868.69;;;20.71
70435;BMP280;57876;47.792;12.960;2022-08-21T08:37:05;96876.94;;;20.71
70435;BMP280;57876;47.792;12.960;2022-08-21T08:39:30;96870.72;;;20.71
70435;BMP280;57876;47.792;12.960;2022-08-21T08:42:16;96872.16;;;20.72
70435;BMP280;57876;47.792;12.960;2022-08-21T08:44:44;96870.88;;;20.73
70435;BMP280;57876;47.792;12.960;2022-08-21T08:47:11;96875.63;;;20.72
70435;BMP280;57876;47.792;12.960;2022-08-21T08:49:40;96867.38;;;20.72
70435;BMP280;57876;47.792;12.960;2022-08-21T08:52:31;96873.03;;;20.74
70435;BMP280;57876;47.792;12.960;2022-08-21T08:57:24;96867.38;;;20.72
70435;BMP280;57876;47.792;12.960;2022-08-21T08:59:52;96863.19;;;20.71
70435;BMP280;57876;47.792;12.960;2022-08-21T09:02:17;96864.63;;;20.72
70435;BMP280;57876;47.792;12.960;2022-08-21T09:04:44;96866.66;;;20.72
70435;BMP280;57876;47.792;12.960;2022-08-21T09:09:48;96863.19;;;20.71
70435;BMP280;57876;47.792;12.960;2022-08-21T09:17:30;96870.13;;;20.72
70435;BMP280;57876;47.792;12.960;2022-08-21T09:20:27;96869.41;;;20.72
70435;BMP280;57876;47.792;12.960;2022-08-21T09:23:34;96859.13;;;20.72
70435;BMP280;57876;47.792;12.960;2022-08-21T09:26:12;96865.38;;;20.73
70435;BMP280;57876;47.792;12.960;2022-08-21T09:28:37;96861.16;;;20.72
70435;BMP280;57876;47.792;12.960;2022-08-21T09:31:16;96853.78;;;20.74
70435;BMP280;57876;47.792;12.960;2022-08-21T09:33:43;96855.81;;;20.73
70435;BMP280;57876;47.792;12.960;2022-08-21T09:36:08;96847.56;;;20.73
70435;BMP280;57876;47.792;12.960;2022-08-21T09:38:34;96856.38;;;20.72
70435;BMP280;57876;47.792;12.960;2022-08-21T09:41:04;96850.88;;;20.72
70435;BMP280;57876;47.792;12.960;2022-08-21T09:43:29;96848.13;;;20.72
70435;BMP280;57876;47.792;12.960;2022-08-21T09:46:10;96841.31;;;20.73
70435;BMP280;57876;47.792;12.960;2022-08-21T09:48:41;96842.06;;;20.73
70435;BMP280;57876;47.792;12.960;2022-08-21T09:51:17;96838.56;;;20.73
70435;BMP280;57876;47.792;12.960;2022-08-21T09:53:45;96840.63;;;20.73
70435;BMP280;57876;47.792;12.960;2022-08-21T09:56:20;96842.06;;;20.73
70435;BMP280;57876;47.792;12.960;2022-08-21T09:59:14;96834.38;;;20.72
70435;BMP280;57876;47.792;12.960;2022-08-21T10:01:48;96839.16;;;20.72
70435;BMP280;57876;47.792;12.960;2022-08-21T10:04:13;96835.69;;;20.71
70435;BMP280;57876;47.792;12.960;2022-08-21T10:06:38;96835.81;;;20.73
70435;BMP280;57876;47.792;12.960;2022-08-21T10:09:14;96827.56;;;20.73
70435;BMP280;57876;47.792;12.960;2022-08-21T10:11:45;96828.31;;;20.73
70435;BMP280;57876;47.792;12.960;2022-08-21T10:19:15;96828.88;;;20.72
70435;BMP280;57876;47.792;12.960;2022-08-21T10:22:27;96826.13;;;20.72
70435;BMP280;57876;47.792;12.960;2022-08-21T10:25:20;96830.19;;;20.71
70435;BMP280;57876;47.792;12.960;2022-08-21T10:36:21;96827.44;;;20.71
70435;BMP280;57876;47.792;12.960;2022-08-21T10:47:10;96813.69;;;20.71
70435;BMP280;57876;47.792;12.960;2022-08-21T10:49:54;96810.22;;;20.71
70435;BMP280;57876;47.792;12.960;2022-08-21T10:55:16;96809.63;;;20.72
70435;BMP280;57876;47.792;12.960;2022-08-21T10:58:05;96816.44;;;20.71
70435;BMP280;57876;47.792;12.960;2022-08-21T11:00:41;96813.81;;;20.73
70435;BMP280;57876;47.792;12.960;2022-08-21T11:03:12;96816.56;;;20.73
70435;BMP280;57876;47.792;12.960;2022-08-21T11:05:42;96806.19;;;20.72
70435;BMP280;57876;47.792;12.960;2022-08-21T11:08:11;96813.69;;;20.71
70435;BMP280;57876;47.792;12.960;2022-08-21T11:10:42;96805.44;;;20.71
70435;BMP280;57876;47.792;12.960;2022-08-21T11:13:14;96806.88;;;20.72
70435;BMP280;57876;47.792;12.960;2022-08-21T11:18:28;96810.94;;;20.71
70435;BMP280;57876;47.792;12.960;2022-08-21T11:24:49;96799.22;;;20.71
70435;BMP280;57876;47.792;12.960;2022-08-21T11:29:38;96790.97;;;20.71
70435;BMP280;57876;47.792;12.960;2022-08-21T11:32:34;96790.28;;;20.70
70435;BMP280;57876;47.792;12.960;2022-08-21T11:38:10;96782.03;;;20.70
70435;BMP280;57876;47.792;12.960;2022-08-21T11:40:53;96783.34;;;20.69
70435;BMP280;57876;47.792;12.960;2022-08-21T11:43:39;96784.78;;;20.70
70435;BMP280;57876;47.792;12.960;2022-08-21T11:46:21;96784.78;;;20.70
70435;BMP280;57876;47.792;12.960;2022-08-21T11:51:33;96781.44;;;20.72
70435;BMP280;57876;47.792;12.960;2022-08-21T11:56:57;96769.00;;;20.71
70435;BMP280;57876;47.792;12.960;2022-08-21T11:59:53;96763.50;;;20.71
70435;BMP280;57876;47.792;12.960;2022-08-21T12:02:22;96765.53;;;20.70
70435;BMP280;57876;47.792;12.960;2022-08-21T12:04:55;96766.94;;;20.71
70435;BMP280;57876;47.792;12.960;2022-08-21T12:09:59;96747.59;;;20.69
70435;BMP280;57876;47.792;12.960;2022-08-21T12:12:28;96745.56;;;20.70
70435;BMP280;57876;47.792;12.960;2022-08-21T12:15:12;96754.53;;;20.70
70435;BMP280;57876;47.792;12.960;2022-08-21T12:17:39;96751.06;;;20.70
70435;BMP280;57876;47.792;12.960;2022-08-21T12:23:25;96747.00;;;20.71
70435;BMP280;57876;47.792;12.960;2022-08-21T12:28:24;96746.41;;;20.72
70435;BMP280;57876;47.792;12.960;2022-08-21T12:30:49;96762.88;;;20.72
70435;BMP280;57876;47.792;12.960;2022-08-21T12:33:37;96756.69;;;20.72
70435;BMP280;57876;47.792;12.960;2022-08-21T12:36:10;96767.69;;;20.72
70435;BMP280;57876;47.792;12.960;2022-08-21T12:38:52;96772.44;;;20.71
70435;BMP280;57876;47.792;12.960;2022-08-21T12:41:26;96766.25;;;20.71
70435;BMP280;57876;47.792;12.960;2022-08-21T12:44:05;96769.00;;;20.71
70435;BMP280;57876;47.792;12.960;2022-08-21T12:46:37;96760.03;;;20.70
70435;BMP280;57876;47.792;12.960;2022-08-21T12:49:30;96744.84;;;20.69
70435;BMP280;57876;47.792;12.960;2022-08-21T12:54:44;96744.13;;;20.69
70435;BMP280;57876;47.792;12.960;2022-08-21T12:57:18;96744.84;;;20.69
70435;BMP280;57876;47.792;12.960;2022-08-21T12:59:42;96737.31;;;20.70
70435;BMP280;57876;47.792;12.960;2022-08-21T13:02:18;96732.53;;;20.70
70435;BMP280;57876;47.792;12.960;2022-08-21T13:04:42;96737.31;;;20.70
70435;BMP280;57876;47.792;12.960;2022-08-21T13:07:10;96722.94;;;20.71
70435;BMP280;57876;47.792;12.960;2022-08-21T13:09:47;96728.44;;;20.71
70435;BMP280;57876;47.792;12.960;2022-08-21T13:12:12;96730.50;;;20.71
70435;BMP280;57876;47.792;12.960;2022-08-21T13:14:39;96738.03;;;20.70
70435;BMP280;57876;47.792;12.960;2022-08-21T13:17:05;96729.78;;;20.70
70435;BMP280;57876;47.792;12.960;2022-08-21T13:19:31;96733.25;;;20.71
70435;BMP280;57876;47.792;12.960;2022-08-21T13:21:57;96735.88;;;20.69
70435;BMP280;57876;47.792;12.960;2022-08-21T13:24:39;96743.53;;;20.70
70435;BMP280;57876;47.792;12.960;2022-08-21T13:27:16;96734.56;;;20.70
70435;BMP280;57876;47.792;12.960;2022-08-21T13:29:41;96734.56;;;20.70
70435;BMP280;57876;47.792;12.960;2022-08-21T13:32:06;96727.03;;;20.70
70435;BMP280;57876;47.792;12.960;2022-08-21T13:34:36;96723.56;;;20.70
70435;BMP280;57876;47.792;12.960;2022-08-21T13:37:06;96720.84;;;20.70
70435;BMP280;57876;47.792;12.960;2022-08-21T13:39:31;96720.84;;;20.70
70435;BMP280;57876;47.792;12.960;2022-08-21T13:41:58;96711.13;;;20.69
70435;BMP280;57876;47.792;12.960;2022-08-21T13:44:46;96707.09;;;20.70
70435;BMP280;57876;47.792;12.960;2022-08-21T13:47:12;96714.59;;;20.69
70435;BMP280;57876;47.792;12.960;2022-08-21T13:49:44;96707.78;;;20.70
70435;BMP280;57876;47.792;12.960;2022-08-21T13:52:26;96707.09;;;20.70
70435;BMP280;57876;47.792;12.960;2022-08-21T13:54:55;96709.84;;;20.70
70435;BMP280;57876;47.792;12.960;2022-08-21T13:57:30;96713.28;;;20.70
70435;BMP280;57876;47.792;12.960;2022-08-21T14:00:28;96714.72;;;20.71
70435;BMP280;57876;47.792;12.960;2022-08-21T14:03:00;96721.66;;;20.72
70435;BMP280;57876;47.792;12.960;2022-08-21T14:05:28;96718.19;;;20.72
70435;BMP280;57876;47.792;12.960;2022-08-21T14:08:12;96709.94;;;20.72
70435;BMP280;57876;47.792;12.960;2022-08-21T14:10:44;96706.47;;;20.71
70435;BMP280;57876;47.792;12.960;2022-08-21T14:15:58;96698.34;;;20.73
70435;BMP280;57876;47.792;12.960;2022-08-21T14:18:23;96700.97;;;20.71
70435;BMP280;57876;47.792;12.960;2022-08-21T14:20:49;96703.84;;;20.73
70435;BMP280;57876;47.792;12.960;2022-08-21T14:23:25;96705.16;;;20.72
70435;BMP280;57876;47.792;12.960;2022-08-21T14:25:49;96699.66;;;20.72
70435;BMP280;57876;47.792;12.960;2022-08-21T14:28:23;96696.91;;;20.72
70435;BMP280;57876;47.792;12.960;2022-08-21T14:30:49;96689.97;;;20.71
70435;BMP280;57876;47.792;12.960;2022-08-21T14:33:23;96693.44;;;20.72
70435;BMP280;57876;47.792;12.960;2022-08-21T14:35:49;96685.19;;;20.72
70435;BMP280;57876;47.792;12.960;2022-08-21T14:38:18;96687.22;;;20.71
70435;BMP280;57876;47.792;12.960;2022-08-21T14:40:43;96682.44;;;20.72
70435;BMP280;57876;47.792;12.960;2022-08-21T14:43:10;96685.19;;;20.72
70435;BMP280;57876;47.792;12.960;2022-08-21T14:45:35;96680.41;;;20.72
70435;BMP280;57876;47.792;12.960;2022-08-21T14:48:01;96680.41;;;20.72
70435;BMP280;57876;47.792;12.960;2022-08-21T14:50:25;96673.47;;;20.71
70435;BMP280;57876;47.792;12.960;2022-08-21T14:52:50;96669.41;;;20.72
70435;BMP280;57876;47.792;12.960;2022-08-21T14:55:15;96674.91;;;20.72
70435;BMP280;57876;47.792;12.960;2022-08-21T14:57:46;96661.16;;;20.72
70435;BMP280;57876;47.792;12.960;2022-08-21T15:00:13;96668.09;;;20.73
70435;BMP280;57876;47.792;12.960;2022-08-21T15:02:38;96669.53;;;20.74
70435;BMP280;57876;47.792;12.960;2022-08-21T15:05:03;96673.59;;;20.73
70435;BMP280;57876;47.792;12.960;2022-08-21T15:07:27;96672.28;;;20.74
70435;BMP280;57876;47.792;12.960;2022-08-21T15:09:52;96669.81;;;20.78